sensor_id;sensor_type;location;lat;lon;timestamp;P1;durP1;ratioP1;P2;durP2;ratioP2
59458;SDS011;45269;43.568;22.244;2022-11-06T00:00:17;82.32;;;62.50;;
59458;SDS011;45269;43.568;22.244;2022-11-06T00:02:43;68.00;;;54.55;;
59458;SDS011;45269;43.568;22.244;2022-11-06T00:05:08;73.40;;;59.72;;
59458;SDS011;45269;43.568;22.244;2022-11-06T00:07:52;93.78;;;67.70;;
59458;SDS011;45269;43.568;22.244;2022-11-06T00:10:18;117.43;;;83.15;;
59458;SDS011;45269;43.568;22.244;2022-11-06T00:12:43;118.40;;;84.82;;
59458;SDS011;45269;43.568;22.244;2022-11-06T00:15:09;113.32;;;83.43;;
59458;SDS011;45269;43.568;22.244;2022-11-06T00:17:35;212.95;;;118.65;;
59458;SDS011;45269;43.568;22.244;2022-11-06T00:20:00;166.93;;;101.93;;
59458;SDS011;45269;43.568;22.244;2022-11-06T00:22:25;126.30;;;85.93;;
59458;SDS011;45269;43.568;22.244;2022-11-06T00:24:51;107.65;;;80.43;;
59458;SDS011;45269;43.568;22.244;2022-11-06T00:27:16;99.70;;;71.28;;
59458;SDS011;45269;43.568;22.244;2022-11-06T00:29:42;94.00;;;71.88;;
59458;SDS011;45269;43.568;22.244;2022-11-06T00:32:07;88.80;;;66.20;;
59458;SDS011;45269;43.568;22.244;2022-11-06T00:34:32;89.75;;;68.20;;
59458;SDS011;45269;43.568;22.244;2022-11-06T00:36:58;85.63;;;65.30;;
59458;SDS011;45269;43.568;22.244;2022-11-06T00:39:23;80.32;;;63.45;;
59458;SDS011;45269;43.568;22.244;2022-11-06T00:41:48;83.03;;;66.15;;
59458;SDS011;45269;43.568;22.244;2022-11-06T00:44:14;81.40;;;62.75;;
59458;SDS011;45269;43.568;22.244;2022-11-06T00:46:39;98.10;;;78.28;;
59458;SDS011;45269;43.568;22.244;2022-11-06T00:49:04;127.05;;;97.85;;
59458;SDS011;45269;43.568;22.244;2022-11-06T00:51:31;138.98;;;102.35;;
59458;SDS011;45269;43.568;22.244;2022-11-06T00:53:57;141.02;;;108.82;;
59458;SDS011;45269;43.568;22.244;2022-11-06T00:56:23;155.82;;;116.15;;
59458;SDS011;45269;43.568;22.244;2022-11-06T00:58:49;159.93;;;114.90;;
59458;SDS011;45269;43.568;22.244;2022-11-06T01:01:15;143.38;;;107.45;;
59458;SDS011;45269;43.568;22.244;2022-11-06T01:03:42;129.63;;;101.15;;
59458;SDS011;45269;43.568;22.244;2022-11-06T01:06:08;118.78;;;93.40;;
59458;SDS011;45269;43.568;22.244;2022-11-06T01:08:34;126.38;;;97.38;;
59458;SDS011;45269;43.568;22.244;2022-11-06T01:11:07;137.68;;;108.25;;
59458;SDS011;45269;43.568;22.244;2022-11-06T01:13:33;122.97;;;95.40;;
59458;SDS011;45269;43.568;22.244;2022-11-06T01:15:58;114.38;;;89.15;;
59458;SDS011;45269;43.568;22.244;2022-11-06T01:18:24;98.97;;;78.05;;
59458;SDS011;45269;43.568;22.244;2022-11-06T01:20:49;100.25;;;79.35;;
59458;SDS011;45269;43.568;22.244;2022-11-06T01:23:15;95.15;;;75.53;;
59458;SDS011;45269;43.568;22.244;2022-11-06T01:25:40;87.40;;;69.47;;
59458;SDS011;45269;43.568;22.244;2022-11-06T01:28:05;93.85;;;76.32;;
59458;SDS011;45269;43.568;22.244;2022-11-06T01:30:33;98.30;;;80.18;;
59458;SDS011;45269;43.568;22.244;2022-11-06T01:32:59;99.75;;;72.88;;
59458;SDS011;45269;43.568;22.244;2022-11-06T01:35:25;91.95;;;74.40;;
59458;SDS011;45269;43.568;22.244;2022-11-06T01:37:50;86.25;;;68.35;;
59458;SDS011;45269;43.568;22.244;2022-11-06T01:40:15;88.15;;;69.72;;
59458;SDS011;45269;43.568;22.244;2022-11-06T01:42:41;91.43;;;73.90;;
59458;SDS011;45269;43.568;22.244;2022-11-06T01:45:13;104.70;;;87.10;;
59458;SDS011;45269;43.568;22.244;2022-11-06T01:47:43;106.97;;;85.68;;
59458;SDS011;45269;43.568;22.244;2022-11-06T01:50:08;100.65;;;81.10;;
59458;SDS011;45269;43.568;22.244;2022-11-06T01:52:35;82.75;;;65.65;;
59458;SDS011;45269;43.568;22.244;2022-11-06T01:55:07;76.57;;;62.80;;
59458;SDS011;45269;43.568;22.244;2022-11-06T01:57:35;77.60;;;62.75;;
59458;SDS011;45269;43.568;22.244;2022-11-06T02:00:00;78.95;;;60.45;;
59458;SDS011;45269;43.568;22.244;2022-11-06T02:02:26;77.60;;;62.80;;
59458;SDS011;45269;43.568;22.244;2022-11-06T02:04:51;92.55;;;68.35;;
59458;SDS011;45269;43.568;22.244;2022-11-06T02:07:17;73.88;;;59.20;;
59458;SDS011;45269;43.568;22.244;2022-11-06T02:09:43;73.82;;;59.10;;
59458;SDS011;45269;43.568;22.244;2022-11-06T02:14:57;71.53;;;55.83;;
59458;SDS011;45269;43.568;22.244;2022-11-06T02:19:56;77.60;;;63.05;;
59458;SDS011;45269;43.568;22.244;2022-11-06T02:25:05;78.22;;;62.85;;
59458;SDS011;45269;43.568;22.244;2022-11-06T02:27:32;87.80;;;66.05;;
59458;SDS011;45269;43.568;22.244;2022-11-06T02:32:37;93.22;;;72.25;;
59458;SDS011;45269;43.568;22.244;2022-11-06T02:35:12;85.43;;;66.57;;
59458;SDS011;45269;43.568;22.244;2022-11-06T02:37:40;78.95;;;62.53;;
59458;SDS011;45269;43.568;22.244;2022-11-06T02:40:06;78.80;;;60.53;;
59458;SDS011;45269;43.568;22.244;2022-11-06T02:42:34;80.07;;;61.78;;
59458;SDS011;45269;43.568;22.244;2022-11-06T02:45:01;81.50;;;65.45;;
59458;SDS011;45269;43.568;22.244;2022-11-06T02:47:27;87.72;;;66.18;;
59458;SDS011;45269;43.568;22.244;2022-11-06T02:49:57;91.78;;;71.72;;
59458;SDS011;45269;43.568;22.244;2022-11-06T02:57:56;83.57;;;65.72;;
59458;SDS011;45269;43.568;22.244;2022-11-06T03:00:23;74.70;;;63.83;;
59458;SDS011;45269;43.568;22.244;2022-11-06T03:02:52;82.47;;;64.38;;
59458;SDS011;45269;43.568;22.244;2022-11-06T03:05:21;75.22;;;60.35;;
59458;SDS011;45269;43.568;22.244;2022-11-06T03:07:55;81.10;;;64.28;;
59458;SDS011;45269;43.568;22.244;2022-11-06T03:10:23;64.22;;;55.47;;
59458;SDS011;45269;43.568;22.244;2022-11-06T03:17:49;67.13;;;50.45;;
59458;SDS011;45269;43.568;22.244;2022-11-06T03:22:48;73.85;;;56.40;;
59458;SDS011;45269;43.568;22.244;2022-11-06T03:25:21;71.70;;;53.22;;
59458;SDS011;45269;43.568;22.244;2022-11-06T03:30:35;68.32;;;55.13;;
59458;SDS011;45269;43.568;22.244;2022-11-06T03:33:03;68.05;;;54.33;;
59458;SDS011;45269;43.568;22.244;2022-11-06T03:35:33;69.25;;;54.65;;
59458;SDS011;45269;43.568;22.244;2022-11-06T03:38:19;64.25;;;54.42;;
59458;SDS011;45269;43.568;22.244;2022-11-06T03:40:48;61.90;;;51.65;;
59458;SDS011;45269;43.568;22.244;2022-11-06T03:43:16;63.20;;;49.58;;
59458;SDS011;45269;43.568;22.244;2022-11-06T03:45:43;65.32;;;53.50;;
59458;SDS011;45269;43.568;22.244;2022-11-06T03:48:19;75.95;;;56.33;;
59458;SDS011;45269;43.568;22.244;2022-11-06T03:50:47;80.88;;;57.95;;
59458;SDS011;45269;43.568;22.244;2022-11-06T03:56:11;94.30;;;72.70;;
59458;SDS011;45269;43.568;22.244;2022-11-06T03:58:39;80.53;;;63.40;;
59458;SDS011;45269;43.568;22.244;2022-11-06T04:01:08;85.40;;;65.57;;
59458;SDS011;45269;43.568;22.244;2022-11-06T04:03:37;127.35;;;86.22;;
59458;SDS011;45269;43.568;22.244;2022-11-06T04:08:35;110.18;;;89.97;;
59458;SDS011;45269;43.568;22.244;2022-11-06T04:11:21;122.88;;;89.05;;
59458;SDS011;45269;43.568;22.244;2022-11-06T04:14:06;108.65;;;81.82;;
59458;SDS011;45269;43.568;22.244;2022-11-06T04:16:38;101.22;;;74.68;;
59458;SDS011;45269;43.568;22.244;2022-11-06T04:19:08;91.32;;;74.90;;
59458;SDS011;45269;43.568;22.244;2022-11-06T04:24:17;96.55;;;75.38;;
59458;SDS011;45269;43.568;22.244;2022-11-06T04:27:14;96.13;;;70.45;;
59458;SDS011;45269;43.568;22.244;2022-11-06T04:37:21;75.88;;;57.08;;
59458;SDS011;45269;43.568;22.244;2022-11-06T04:39:59;108.00;;;69.32;;
59458;SDS011;45269;43.568;22.244;2022-11-06T04:42:35;90.07;;;64.85;;
59458;SDS011;45269;43.568;22.244;2022-11-06T04:45:05;92.25;;;72.82;;
59458;SDS011;45269;43.568;22.244;2022-11-06T04:47:32;134.43;;;91.97;;
59458;SDS011;45269;43.568;22.244;2022-11-06T04:49:58;136.00;;;101.10;;
59458;SDS011;45269;43.568;22.244;2022-11-06T04:52:26;108.60;;;79.72;;
59458;SDS011;45269;43.568;22.244;2022-11-06T04:54:52;102.40;;;76.18;;
59458;SDS011;45269;43.568;22.244;2022-11-06T04:57:18;89.82;;;73.80;;
59458;SDS011;45269;43.568;22.244;2022-11-06T04:59:43;90.25;;;69.55;;
59458;SDS011;45269;43.568;22.244;2022-11-06T05:02:08;84.63;;;65.72;;
59458;SDS011;45269;43.568;22.244;2022-11-06T05:04:34;93.90;;;70.72;;
59458;SDS011;45269;43.568;22.244;2022-11-06T05:06:59;97.55;;;70.30;;
59458;SDS011;45269;43.568;22.244;2022-11-06T05:09:26;92.90;;;71.07;;
59458;SDS011;45269;43.568;22.244;2022-11-06T05:11:52;89.32;;;74.47;;
59458;SDS011;45269;43.568;22.244;2022-11-06T05:14:18;96.57;;;77.18;;
59458;SDS011;45269;43.568;22.244;2022-11-06T05:16:43;89.32;;;70.78;;
59458;SDS011;45269;43.568;22.244;2022-11-06T05:19:08;94.03;;;67.50;;
59458;SDS011;45269;43.568;22.244;2022-11-06T05:21:34;178.55;;;124.93;;
59458;SDS011;45269;43.568;22.244;2022-11-06T05:24:18;138.55;;;102.05;;
59458;SDS011;45269;43.568;22.244;2022-11-06T05:26:43;101.45;;;76.47;;
59458;SDS011;45269;43.568;22.244;2022-11-06T05:29:09;102.07;;;80.30;;
59458;SDS011;45269;43.568;22.244;2022-11-06T05:31:35;106.45;;;84.75;;
59458;SDS011;45269;43.568;22.244;2022-11-06T05:34:00;146.55;;;113.32;;
59458;SDS011;45269;43.568;22.244;2022-11-06T05:36:26;138.63;;;107.85;;
59458;SDS011;45269;43.568;22.244;2022-11-06T05:38:51;124.28;;;101.28;;
59458;SDS011;45269;43.568;22.244;2022-11-06T05:41:16;108.40;;;89.50;;
59458;SDS011;45269;43.568;22.244;2022-11-06T05:43:42;91.45;;;75.40;;
59458;SDS011;45269;43.568;22.244;2022-11-06T05:46:07;92.88;;;73.00;;
59458;SDS011;45269;43.568;22.244;2022-11-06T05:48:32;87.20;;;71.25;;
59458;SDS011;45269;43.568;22.244;2022-11-06T05:51:01;93.15;;;77.05;;
59458;SDS011;45269;43.568;22.244;2022-11-06T05:53:28;91.40;;;71.75;;
59458;SDS011;45269;43.568;22.244;2022-11-06T05:55:53;88.38;;;69.85;;
59458;SDS011;45269;43.568;22.244;2022-11-06T05:58:19;88.93;;;71.70;;
59458;SDS011;45269;43.568;22.244;2022-11-06T06:00:44;91.07;;;73.45;;
59458;SDS011;45269;43.568;22.244;2022-11-06T06:03:09;95.00;;;73.53;;
59458;SDS011;45269;43.568;22.244;2022-11-06T06:05:35;91.63;;;75.47;;
59458;SDS011;45269;43.568;22.244;2022-11-06T06:08:00;98.93;;;82.45;;
59458;SDS011;45269;43.568;22.244;2022-11-06T06:10:25;260.20;;;202.48;;
59458;SDS011;45269;43.568;22.244;2022-11-06T06:12:51;166.52;;;128.95;;
59458;SDS011;45269;43.568;22.244;2022-11-06T06:15:16;130.68;;;99.68;;
59458;SDS011;45269;43.568;22.244;2022-11-06T06:17:42;90.93;;;74.32;;
59458;SDS011;45269;43.568;22.244;2022-11-06T06:20:07;91.15;;;71.93;;
59458;SDS011;45269;43.568;22.244;2022-11-06T06:22:33;106.95;;;80.30;;
59458;SDS011;45269;43.568;22.244;2022-11-06T06:24:58;113.88;;;85.32;;
59458;SDS011;45269;43.568;22.244;2022-11-06T06:27:23;112.95;;;88.18;;
59458;SDS011;45269;43.568;22.244;2022-11-06T06:29:51;116.40;;;93.80;;
59458;SDS011;45269;43.568;22.244;2022-11-06T06:32:17;124.20;;;101.97;;
59458;SDS011;45269;43.568;22.244;2022-11-06T06:34:42;135.48;;;114.90;;
59458;SDS011;45269;43.568;22.244;2022-11-06T06:37:07;116.70;;;97.40;;
59458;SDS011;45269;43.568;22.244;2022-11-06T06:39:33;112.45;;;94.75;;
59458;SDS011;45269;43.568;22.244;2022-11-06T06:41:58;106.00;;;90.70;;
59458;SDS011;45269;43.568;22.244;2022-11-06T06:44:23;135.32;;;113.95;;
59458;SDS011;45269;43.568;22.244;2022-11-06T06:46:49;135.27;;;110.18;;
59458;SDS011;45269;43.568;22.244;2022-11-06T06:49:14;127.53;;;108.35;;
59458;SDS011;45269;43.568;22.244;2022-11-06T06:51:39;117.90;;;98.38;;
59458;SDS011;45269;43.568;22.244;2022-11-06T06:54:05;112.60;;;88.22;;
59458;SDS011;45269;43.568;22.244;2022-11-06T06:56:30;121.57;;;101.97;;
59458;SDS011;45269;43.568;22.244;2022-11-06T06:58:56;122.25;;;104.20;;
59458;SDS011;45269;43.568;22.244;2022-11-06T07:01:21;144.25;;;128.30;;
59458;SDS011;45269;43.568;22.244;2022-11-06T07:03:46;115.45;;;93.25;;
59458;SDS011;45269;43.568;22.244;2022-11-06T07:06:12;134.13;;;114.32;;
59458;SDS011;45269;43.568;22.244;2022-11-06T07:08:37;132.95;;;114.50;;
59458;SDS011;45269;43.568;22.244;2022-11-06T07:11:04;130.50;;;110.07;;
59458;SDS011;45269;43.568;22.244;2022-11-06T07:13:30;115.22;;;97.45;;
59458;SDS011;45269;43.568;22.244;2022-11-06T07:15:55;128.13;;;105.45;;
59458;SDS011;45269;43.568;22.244;2022-11-06T07:18:20;96.78;;;78.68;;
59458;SDS011;45269;43.568;22.244;2022-11-06T07:20:46;114.25;;;91.18;;
59458;SDS011;45269;43.568;22.244;2022-11-06T07:23:11;129.27;;;97.03;;
59458;SDS011;45269;43.568;22.244;2022-11-06T07:25:37;102.38;;;83.32;;
59458;SDS011;45269;43.568;22.244;2022-11-06T07:28:03;118.93;;;85.93;;
59458;SDS011;45269;43.568;22.244;2022-11-06T07:30:28;135.63;;;95.35;;
59458;SDS011;45269;43.568;22.244;2022-11-06T07:32:54;192.45;;;118.28;;
59458;SDS011;45269;43.568;22.244;2022-11-06T07:35:19;144.68;;;96.88;;
59458;SDS011;45269;43.568;22.244;2022-11-06T07:37:44;139.35;;;98.53;;
59458;SDS011;45269;43.568;22.244;2022-11-06T07:40:10;388.70;;;221.20;;
59458;SDS011;45269;43.568;22.244;2022-11-06T07:42:35;107.85;;;74.95;;
59458;SDS011;45269;43.568;22.244;2022-11-06T07:45:00;72.72;;;52.80;;
59458;SDS011;45269;43.568;22.244;2022-11-06T07:47:28;79.57;;;60.45;;
59458;SDS011;45269;43.568;22.244;2022-11-06T07:49:54;79.65;;;61.17;;
59458;SDS011;45269;43.568;22.244;2022-11-06T07:52:20;84.45;;;68.03;;
59458;SDS011;45269;43.568;22.244;2022-11-06T07:54:45;90.00;;;69.30;;
59458;SDS011;45269;43.568;22.244;2022-11-06T07:57:10;115.20;;;89.85;;
59458;SDS011;45269;43.568;22.244;2022-11-06T07:59:36;111.32;;;74.28;;
59458;SDS011;45269;43.568;22.244;2022-11-06T08:02:01;110.13;;;74.22;;
59458;SDS011;45269;43.568;22.244;2022-11-06T08:04:26;82.65;;;66.13;;
59458;SDS011;45269;43.568;22.244;2022-11-06T08:06:52;109.72;;;88.97;;
59458;SDS011;45269;43.568;22.244;2022-11-06T08:09:17;127.70;;;99.15;;
59458;SDS011;45269;43.568;22.244;2022-11-06T08:11:42;105.63;;;89.47;;
59458;SDS011;45269;43.568;22.244;2022-11-06T08:14:08;111.43;;;96.57;;
59458;SDS011;45269;43.568;22.244;2022-11-06T08:16:34;92.03;;;76.95;;
59458;SDS011;45269;43.568;22.244;2022-11-06T08:19:00;94.88;;;77.03;;
59458;SDS011;45269;43.568;22.244;2022-11-06T08:21:25;98.95;;;81.70;;
59458;SDS011;45269;43.568;22.244;2022-11-06T08:23:51;106.88;;;91.22;;
59458;SDS011;45269;43.568;22.244;2022-11-06T08:26:16;128.25;;;101.97;;
59458;SDS011;45269;43.568;22.244;2022-11-06T08:28:42;142.30;;;103.30;;
59458;SDS011;45269;43.568;22.244;2022-11-06T08:31:08;133.82;;;104.25;;
59458;SDS011;45269;43.568;22.244;2022-11-06T08:33:34;82.10;;;70.90;;
59458;SDS011;45269;43.568;22.244;2022-11-06T08:36:00;59.00;;;51.20;;
59458;SDS011;45269;43.568;22.244;2022-11-06T08:38:26;62.30;;;50.20;;
59458;SDS011;45269;43.568;22.244;2022-11-06T08:40:51;57.30;;;50.97;;
59458;SDS011;45269;43.568;22.244;2022-11-06T08:43:17;64.43;;;55.95;;
59458;SDS011;45269;43.568;22.244;2022-11-06T08:45:42;124.72;;;102.72;;
59458;SDS011;45269;43.568;22.244;2022-11-06T08:48:07;75.43;;;63.70;;
59458;SDS011;45269;43.568;22.244;2022-11-06T08:50:34;142.18;;;112.53;;
59458;SDS011;45269;43.568;22.244;2022-11-06T08:53:00;61.97;;;52.33;;
59458;SDS011;45269;43.568;22.244;2022-11-06T08:55:28;60.90;;;52.33;;
59458;SDS011;45269;43.568;22.244;2022-11-06T08:57:53;67.57;;;54.08;;
59458;SDS011;45269;43.568;22.244;2022-11-06T09:00:19;92.32;;;71.60;;
59458;SDS011;45269;43.568;22.244;2022-11-06T09:02:45;75.47;;;65.47;;
59458;SDS011;45269;43.568;22.244;2022-11-06T09:05:10;84.85;;;70.05;;
59458;SDS011;45269;43.568;22.244;2022-11-06T09:07:35;62.50;;;52.13;;
59458;SDS011;45269;43.568;22.244;2022-11-06T09:10:01;53.00;;;47.28;;
59458;SDS011;45269;43.568;22.244;2022-11-06T09:12:26;116.85;;;98.13;;
59458;SDS011;45269;43.568;22.244;2022-11-06T09:14:52;63.90;;;50.90;;
59458;SDS011;45269;43.568;22.244;2022-11-06T09:17:18;56.80;;;47.35;;
59458;SDS011;45269;43.568;22.244;2022-11-06T09:19:47;54.03;;;45.55;;
59458;SDS011;45269;43.568;22.244;2022-11-06T09:22:12;54.05;;;46.85;;
59458;SDS011;45269;43.568;22.244;2022-11-06T09:24:38;54.72;;;43.35;;
59458;SDS011;45269;43.568;22.244;2022-11-06T09:27:03;54.03;;;44.75;;
59458;SDS011;45269;43.568;22.244;2022-11-06T09:29:28;50.65;;;41.03;;
59458;SDS011;45269;43.568;22.244;2022-11-06T09:31:54;46.53;;;39.40;;
59458;SDS011;45269;43.568;22.244;2022-11-06T09:34:19;49.03;;;41.25;;
59458;SDS011;45269;43.568;22.244;2022-11-06T09:36:44;47.20;;;39.92;;
59458;SDS011;45269;43.568;22.244;2022-11-06T09:39:10;48.33;;;40.80;;
59458;SDS011;45269;43.568;22.244;2022-11-06T09:46:33;123.43;;;96.28;;
59458;SDS011;45269;43.568;22.244;2022-11-06T09:49:09;58.67;;;50.13;;
59458;SDS011;45269;43.568;22.244;2022-11-06T09:54:15;70.28;;;55.75;;
59458;SDS011;45269;43.568;22.244;2022-11-06T09:56:42;71.60;;;57.45;;
59458;SDS011;45269;43.568;22.244;2022-11-06T09:59:10;111.22;;;90.88;;
59458;SDS011;45269;43.568;22.244;2022-11-06T10:01:43;87.03;;;69.60;;
59458;SDS011;45269;43.568;22.244;2022-11-06T10:04:14;69.35;;;58.75;;
59458;SDS011;45269;43.568;22.244;2022-11-06T10:06:43;75.25;;;56.30;;
59458;SDS011;45269;43.568;22.244;2022-11-06T10:09:09;67.43;;;51.55;;
59458;SDS011;45269;43.568;22.244;2022-11-06T10:11:40;58.05;;;45.53;;
59458;SDS011;45269;43.568;22.244;2022-11-06T10:16:39;51.05;;;43.15;;
59458;SDS011;45269;43.568;22.244;2022-11-06T10:21:44;62.55;;;50.33;;
59458;SDS011;45269;43.568;22.244;2022-11-06T10:24:14;58.38;;;50.40;;
59458;SDS011;45269;43.568;22.244;2022-11-06T10:26:53;54.53;;;46.67;;
59458;SDS011;45269;43.568;22.244;2022-11-06T10:29:30;56.45;;;48.60;;
59458;SDS011;45269;43.568;22.244;2022-11-06T10:32:02;45.22;;;39.15;;
59458;SDS011;45269;43.568;22.244;2022-11-06T10:34:30;43.92;;;36.38;;
59458;SDS011;45269;43.568;22.244;2022-11-06T10:37:10;58.97;;;46.25;;
59458;SDS011;45269;43.568;22.244;2022-11-06T10:39:36;142.52;;;107.07;;
59458;SDS011;45269;43.568;22.244;2022-11-06T10:42:18;84.13;;;59.42;;
59458;SDS011;45269;43.568;22.244;2022-11-06T10:44:56;47.28;;;40.45;;
59458;SDS011;45269;43.568;22.244;2022-11-06T10:47:23;52.65;;;41.80;;
59458;SDS011;45269;43.568;22.244;2022-11-06T10:49:52;73.05;;;60.75;;
59458;SDS011;45269;43.568;22.244;2022-11-06T11:00:24;63.63;;;48.92;;
59458;SDS011;45269;43.568;22.244;2022-11-06T11:02:51;62.80;;;51.08;;
59458;SDS011;45269;43.568;22.244;2022-11-06T11:05:18;66.88;;;50.90;;
59458;SDS011;45269;43.568;22.244;2022-11-06T11:07:45;75.30;;;61.88;;
59458;SDS011;45269;43.568;22.244;2022-11-06T11:10:44;101.30;;;66.80;;
59458;SDS011;45269;43.568;22.244;2022-11-06T11:13:03;73.47;;;50.85;;
59458;SDS011;45269;43.568;22.244;2022-11-06T11:15:33;61.33;;;50.53;;
59458;SDS011;45269;43.568;22.244;2022-11-06T11:20:39;62.35;;;46.15;;
59458;SDS011;45269;43.568;22.244;2022-11-06T11:25:31;80.95;;;59.65;;
59458;SDS011;45269;43.568;22.244;2022-11-06T11:27:57;66.45;;;55.10;;
59458;SDS011;45269;43.568;22.244;2022-11-06T11:30:23;95.57;;;59.72;;
59458;SDS011;45269;43.568;22.244;2022-11-06T11:32:54;146.68;;;93.60;;
59458;SDS011;45269;43.568;22.244;2022-11-06T11:35:20;89.95;;;63.20;;
59458;SDS011;45269;43.568;22.244;2022-11-06T11:37:46;70.57;;;60.78;;
59458;SDS011;45269;43.568;22.244;2022-11-06T11:40:31;67.72;;;54.00;;
59458;SDS011;45269;43.568;22.244;2022-11-06T11:43:42;75.68;;;61.35;;
59458;SDS011;45269;43.568;22.244;2022-11-06T11:48:26;63.92;;;51.85;;
59458;SDS011;45269;43.568;22.244;2022-11-06T11:50:51;63.75;;;53.78;;
59458;SDS011;45269;43.568;22.244;2022-11-06T11:53:18;66.47;;;51.67;;
59458;SDS011;45269;43.568;22.244;2022-11-06T11:55:44;137.48;;;101.45;;
59458;SDS011;45269;43.568;22.244;2022-11-06T11:58:14;90.80;;;69.47;;
59458;SDS011;45269;43.568;22.244;2022-11-06T12:00:47;66.20;;;49.70;;
59458;SDS011;45269;43.568;22.244;2022-11-06T12:03:13;86.25;;;66.38;;
59458;SDS011;45269;43.568;22.244;2022-11-06T12:05:38;58.53;;;46.80;;
59458;SDS011;45269;43.568;22.244;2022-11-06T12:08:05;53.10;;;45.28;;
59458;SDS011;45269;43.568;22.244;2022-11-06T12:10:40;53.70;;;46.25;;
59458;SDS011;45269;43.568;22.244;2022-11-06T12:13:12;59.03;;;44.85;;
59458;SDS011;45269;43.568;22.244;2022-11-06T12:18:22;56.58;;;48.72;;
59458;SDS011;45269;43.568;22.244;2022-11-06T12:21:05;63.60;;;45.22;;
59458;SDS011;45269;43.568;22.244;2022-11-06T12:26:25;50.25;;;44.33;;
59458;SDS011;45269;43.568;22.244;2022-11-06T12:28:55;59.92;;;45.38;;
59458;SDS011;45269;43.568;22.244;2022-11-06T12:33:56;83.68;;;65.53;;
59458;SDS011;45269;43.568;22.244;2022-11-06T12:36:23;83.75;;;59.90;;
59458;SDS011;45269;43.568;22.244;2022-11-06T12:38:58;119.43;;;101.32;;
59458;SDS011;45269;43.568;22.244;2022-11-06T12:41:29;91.10;;;69.10;;
59458;SDS011;45269;43.568;22.244;2022-11-06T12:43:56;62.03;;;52.70;;
59458;SDS011;45269;43.568;22.244;2022-11-06T12:59:41;61.22;;;49.17;;
59458;SDS011;45269;43.568;22.244;2022-11-06T13:13:18;60.45;;;45.97;;
59458;SDS011;45269;43.568;22.244;2022-11-06T13:21:14;60.97;;;46.33;;
59458;SDS011;45269;43.568;22.244;2022-11-06T13:23:43;56.80;;;49.95;;
59458;SDS011;45269;43.568;22.244;2022-11-06T13:26:15;68.85;;;59.47;;
59458;SDS011;45269;43.568;22.244;2022-11-06T13:31:07;68.00;;;53.77;;
59458;SDS011;45269;43.568;22.244;2022-11-06T13:33:38;59.88;;;50.83;;
59458;SDS011;45269;43.568;22.244;2022-11-06T13:36:06;58.13;;;49.22;;
59458;SDS011;45269;43.568;22.244;2022-11-06T13:38:46;58.25;;;49.20;;
59458;SDS011;45269;43.568;22.244;2022-11-06T13:41:19;56.30;;;49.83;;
59458;SDS011;45269;43.568;22.244;2022-11-06T13:43:53;69.15;;;56.65;;
59458;SDS011;45269;43.568;22.244;2022-11-06T13:46:23;82.75;;;65.60;;
59458;SDS011;45269;43.568;22.244;2022-11-06T13:48:57;82.07;;;69.38;;
59458;SDS011;45269;43.568;22.244;2022-11-06T13:56:58;66.28;;;58.75;;
59458;SDS011;45269;43.568;22.244;2022-11-06T13:59:18;67.22;;;55.50;;
59458;SDS011;45269;43.568;22.244;2022-11-06T14:07:08;60.08;;;49.20;;
59458;SDS011;45269;43.568;22.244;2022-11-06T14:09:34;58.17;;;49.03;;
59458;SDS011;45269;43.568;22.244;2022-11-06T14:12:01;65.40;;;53.13;;
59458;SDS011;45269;43.568;22.244;2022-11-06T14:14:29;59.53;;;52.20;;
59458;SDS011;45269;43.568;22.244;2022-11-06T14:17:12;60.92;;;53.00;;
59458;SDS011;45269;43.568;22.244;2022-11-06T14:19:39;60.15;;;47.97;;
59458;SDS011;45269;43.568;22.244;2022-11-06T14:26:59;80.85;;;65.80;;
59458;SDS011;45269;43.568;22.244;2022-11-06T14:34:37;75.82;;;66.45;;
59458;SDS011;45269;43.568;22.244;2022-11-06T14:44:54;62.13;;;53.40;;
59458;SDS011;45269;43.568;22.244;2022-11-06T14:47:34;64.25;;;49.13;;
59458;SDS011;45269;43.568;22.244;2022-11-06T14:50:01;70.78;;;59.25;;
59458;SDS011;45269;43.568;22.244;2022-11-06T14:52:27;69.70;;;61.58;;
59458;SDS011;45269;43.568;22.244;2022-11-06T14:54:55;62.05;;;55.50;;
59458;SDS011;45269;43.568;22.244;2022-11-06T14:59:59;68.30;;;60.38;;
59458;SDS011;45269;43.568;22.244;2022-11-06T15:02:25;83.10;;;68.30;;
59458;SDS011;45269;43.568;22.244;2022-11-06T15:04:52;94.53;;;72.72;;
59458;SDS011;45269;43.568;22.244;2022-11-06T15:07:31;105.10;;;78.05;;
59458;SDS011;45269;43.568;22.244;2022-11-06T15:09:57;73.00;;;62.13;;
59458;SDS011;45269;43.568;22.244;2022-11-06T15:13:02;74.97;;;63.45;;
59458;SDS011;45269;43.568;22.244;2022-11-06T15:15:14;82.13;;;65.22;;
59458;SDS011;45269;43.568;22.244;2022-11-06T15:17:40;85.43;;;76.30;;
59458;SDS011;45269;43.568;22.244;2022-11-06T15:20:09;93.18;;;76.57;;
59458;SDS011;45269;43.568;22.244;2022-11-06T15:22:48;164.52;;;128.65;;
59458;SDS011;45269;43.568;22.244;2022-11-06T15:27:42;96.28;;;80.88;;
59458;SDS011;45269;43.568;22.244;2022-11-06T15:30:08;252.90;;;142.27;;
59458;SDS011;45269;43.568;22.244;2022-11-06T15:35:11;139.23;;;114.22;;
59458;SDS011;45269;43.568;22.244;2022-11-06T15:37:44;183.27;;;143.65;;
59458;SDS011;45269;43.568;22.244;2022-11-06T15:40:29;206.52;;;167.82;;
59458;SDS011;45269;43.568;22.244;2022-11-06T15:42:57;189.00;;;165.60;;
59458;SDS011;45269;43.568;22.244;2022-11-06T15:45:24;259.60;;;213.68;;
59458;SDS011;45269;43.568;22.244;2022-11-06T15:47:53;253.75;;;210.38;;
59458;SDS011;45269;43.568;22.244;2022-11-06T15:50:21;285.95;;;246.65;;
59458;SDS011;45269;43.568;22.244;2022-11-06T15:52:47;408.65;;;315.40;;
59458;SDS011;45269;43.568;22.244;2022-11-06T15:55:13;382.30;;;237.27;;
59458;SDS011;45269;43.568;22.244;2022-11-06T15:57:39;140.10;;;98.15;;
59458;SDS011;45269;43.568;22.244;2022-11-06T16:00:08;196.05;;;125.72;;
59458;SDS011;45269;43.568;22.244;2022-11-06T16:02:57;322.13;;;212.50;;
59458;SDS011;45269;43.568;22.244;2022-11-06T16:05:23;483.40;;;361.23;;
59458;SDS011;45269;43.568;22.244;2022-11-06T16:07:49;388.92;;;261.27;;
59458;SDS011;45269;43.568;22.244;2022-11-06T16:10:15;771.95;;;566.33;;
59458;SDS011;45269;43.568;22.244;2022-11-06T16:12:41;549.22;;;433.17;;
59458;SDS011;45269;43.568;22.244;2022-11-06T16:17:51;328.52;;;242.15;;
59458;SDS011;45269;43.568;22.244;2022-11-06T16:20:17;173.48;;;132.93;;
59458;SDS011;45269;43.568;22.244;2022-11-06T16:22:42;158.43;;;124.72;;
59458;SDS011;45269;43.568;22.244;2022-11-06T16:25:14;256.88;;;199.98;;
59458;SDS011;45269;43.568;22.244;2022-11-06T16:27:41;1080.30;;;740.83;;
59458;SDS011;45269;43.568;22.244;2022-11-06T16:30:18;498.08;;;376.38;;
59458;SDS011;45269;43.568;22.244;2022-11-06T16:32:43;517.88;;;404.25;;
59458;SDS011;45269;43.568;22.244;2022-11-06T16:35:31;574.78;;;468.02;;